createdAt,value
2019-04-28T00:00:13.284Z,912.88
2019-04-28T00:01:13.212Z,912.88
2019-04-28T00:02:13.212Z,912.92
2019-04-28T00:03:13.180Z,912.91
2019-04-28T00:04:13.180Z,912.88
2019-04-28T00:05:13.086Z,912.92
2019-04-28T00:06:13.150Z,912.93
2019-04-28T00:07:13.037Z,912.91
2019-04-28T00:08:12.993Z,912.93
2019-04-28T00:09:12.974Z,912.91
2019-04-28T00:10:12.933Z,912.91
2019-04-28T00:11:12.913Z,912.88
2019-04-28T00:12:12.866Z,912.88
2019-04-28T00:13:12.841Z,912.85
2019-04-28T00:14:12.830Z,912.85
2019-04-28T00:15:13.063Z,912.84
2019-04-28T00:16:12.774Z,912.88
2019-04-28T00:17:12.712Z,912.86
2019-04-28T00:18:12.756Z,912.88
2019-04-28T00:19:12.639Z,912.91
2019-04-28T00:20:12.784Z,912.88
2019-04-28T00:21:12.843Z,912.91
2019-04-28T00:22:12.552Z,912.91
2019-04-28T00:23:12.471Z,912.94
2019-04-28T00:24:12.462Z,912.93
2019-04-28T00:25:12.437Z,912.99
2019-04-28T00:26:12.423Z,912.98
2019-04-28T00:27:12.386Z,912.98
2019-04-28T00:28:12.346Z,913.00
2019-04-28T00:29:12.613Z,913.01
2019-04-28T00:30:12.326Z,913.03
2019-04-28T00:31:12.292Z,913.05
2019-04-28T00:32:12.243Z,913.10
2019-04-28T00:33:12.207Z,913.07
2019-04-28T00:34:12.179Z,913.09
2019-04-28T00:35:12.145Z,913.09
2019-04-28T00:36:12.091Z,913.08
2019-04-28T00:37:12.101Z,913.03
2019-04-28T00:38:13.064Z,913.07
2019-04-28T00:39:12.067Z,913.04
2019-04-28T00:40:11.961Z,913.06
2019-04-28T00:41:11.960Z,913.07
2019-04-28T00:42:11.929Z,913.02
2019-04-28T00:43:11.894Z,913.04
2019-04-28T00:44:12.092Z,913.04
2019-04-28T00:45:11.825Z,913.04
2019-04-28T00:46:12.541Z,913.02
2019-04-28T00:47:12.007Z,913.02
2019-04-28T00:48:11.732Z,913.01
2019-04-28T00:49:11.970Z,913.01
2019-04-28T00:50:11.798Z,913.03
2019-04-28T00:51:11.678Z,913.01
2019-04-28T00:52:11.531Z,913.02
2019-04-28T00:53:11.717Z,912.98
2019-04-28T00:54:12.021Z,913.02
2019-04-28T00:55:11.500Z,912.96
2019-04-28T00:56:12.080Z,912.97
2019-04-28T00:57:11.522Z,913.00
2019-04-28T00:58:11.413Z,912.96
2019-04-28T00:59:11.756Z,912.98
2019-04-28T01:00:11.615Z,913.00
2019-04-28T01:01:11.424Z,913.01
2019-04-28T01:02:11.288Z,912.99
2019-04-28T01:03:11.729Z,913.01
2019-04-28T01:04:11.806Z,913.02
2019-04-28T01:05:11.394Z,913.01
2019-04-28T01:06:11.591Z,913.02
2019-04-28T01:07:11.529Z,913.00
2019-04-28T01:08:11.101Z,912.97
2019-04-28T01:09:11.854Z,913.01
2019-04-28T01:10:11.423Z,912.98
2019-04-28T01:11:13.736Z,913.02
2019-04-28T01:12:11.253Z,913.02
2019-04-28T01:13:13.827Z,913.03
2019-04-28T01:14:13.229Z,913.06
2019-04-28T01:15:10.931Z,913.09
2019-04-28T01:16:10.816Z,913.06
2019-04-28T01:17:10.807Z,913.04
2019-04-28T01:18:10.781Z,913.08
2019-04-28T01:19:13.986Z,913.09
2019-04-28T01:20:10.963Z,913.08
2019-04-28T01:21:10.751Z,913.10
2019-04-28T01:22:10.650Z,913.11
2019-04-28T01:23:13.037Z,913.13
2019-04-28T01:24:11.772Z,913.15
2019-04-28T01:25:10.753Z,913.16
2019-04-28T01:26:10.777Z,913.17
2019-04-28T01:27:12.853Z,913.22
2019-04-28T01:28:12.750Z,913.17
2019-04-28T01:29:10.404Z,913.18
2019-04-28T01:30:11.284Z,913.19
2019-04-28T01:31:10.641Z,913.19
2019-04-28T01:32:10.441Z,913.20
2019-04-28T01:33:10.333Z,913.19
2019-04-28T01:34:10.416Z,913.25
2019-04-28T01:35:10.218Z,913.22
2019-04-28T01:36:10.492Z,913.22
2019-04-28T01:37:10.125Z,913.21
2019-04-28T01:38:12.237Z,913.21
2019-04-28T01:39:10.181Z,913.21
2019-04-28T01:40:10.051Z,913.19
2019-04-28T01:41:10.040Z,913.16
2019-04-28T01:42:10.619Z,913.20
2019-04-28T01:43:10.005Z,913.19
2019-04-28T01:44:10.267Z,913.21
2019-04-28T01:45:10.574Z,913.19
2019-04-28T01:46:10.204Z,913.23
2019-04-28T01:47:10.586Z,913.23
2019-04-28T01:48:10.173Z,913.23
2019-04-28T01:49:09.788Z,913.25
2019-04-28T01:50:10.227Z,913.25
2019-04-28T01:51:09.685Z,913.23
2019-04-28T01:52:10.408Z,913.21
2019-04-28T01:54:09.835Z,913.22
2019-04-28T01:55:10.111Z,913.19
2019-04-28T01:56:10.600Z,913.19
2019-04-28T01:57:10.116Z,913.24
2019-04-28T01:58:09.607Z,913.23
2019-04-28T01:59:10.191Z,913.27
2019-04-28T02:00:20.010Z,913.27
2019-04-28T02:01:10.588Z,913.28
2019-04-28T02:02:10.150Z,913.24
2019-04-28T02:03:10.388Z,913.26
2019-04-28T02:04:10.103Z,913.24
2019-04-28T02:05:09.733Z,913.24
2019-04-28T02:06:10.019Z,913.24
2019-04-28T02:07:10.906Z,913.22
2019-04-28T02:08:10.194Z,913.24
2019-04-28T02:09:11.992Z,913.20
2019-04-28T02:10:10.265Z,913.22
2019-04-28T02:11:10.097Z,913.22
2019-04-28T02:12:10.620Z,913.19
2019-04-28T02:13:09.571Z,913.20
2019-04-28T02:14:09.656Z,913.22
2019-04-28T02:15:12.072Z,913.21
2019-04-28T02:16:09.754Z,913.21
2019-04-28T02:17:11.994Z,913.25
2019-04-28T02:18:09.926Z,913.21
2019-04-28T02:19:10.629Z,913.18
2019-04-28T02:20:10.416Z,913.18
2019-04-28T02:21:09.655Z,913.21
2019-04-28T02:22:10.472Z,913.16
2019-04-28T02:23:09.891Z,913.21
2019-04-28T02:24:11.696Z,913.18
2019-04-28T02:25:09.966Z,913.19
2019-04-28T02:26:09.697Z,913.20
2019-04-28T02:27:10.410Z,913.20
2019-04-28T02:28:11.886Z,913.18
2019-04-28T02:29:10.112Z,913.19
2019-04-28T02:30:11.714Z,913.20
2019-04-28T02:31:11.299Z,913.21
2019-04-28T02:32:10.289Z,913.20
2019-04-28T02:33:10.881Z,913.22
2019-04-28T02:34:11.138Z,913.20
2019-04-28T02:35:10.392Z,913.19
2019-04-28T02:36:09.747Z,913.23
2019-04-28T02:37:11.000Z,913.22
2019-04-28T02:38:08.179Z,913.20
2019-04-28T02:39:23.515Z,913.20
2019-04-28T02:41:11.128Z,913.10
2019-04-28T02:42:10.661Z,913.13
2019-04-28T02:43:08.019Z,913.12
2019-04-28T02:44:10.440Z,913.09
2019-04-28T02:45:07.990Z,913.12
2019-04-28T02:46:10.414Z,913.11
2019-04-28T02:47:10.394Z,913.12
2019-04-28T02:48:07.832Z,913.15
2019-04-28T02:49:10.490Z,913.14
2019-04-28T02:50:07.787Z,913.14
2019-04-28T02:51:07.927Z,913.16
2019-04-28T02:52:10.600Z,913.17
2019-04-28T02:53:07.672Z,913.16
2019-04-28T02:54:07.599Z,913.16
2019-04-28T02:55:07.851Z,913.20
2019-04-28T02:56:07.594Z,913.14
2019-04-28T02:57:07.534Z,913.19
2019-04-28T02:58:07.523Z,913.17
2019-04-28T02:59:07.514Z,913.16
2019-04-28T03:00:10.103Z,913.12
2019-04-28T03:01:18.604Z,913.13
2019-04-28T03:02:07.395Z,913.12
2019-04-28T03:03:07.410Z,913.12
2019-04-28T03:04:07.303Z,913.09
2019-04-28T03:05:07.281Z,913.13
2019-04-28T03:06:07.242Z,913.12
2019-04-28T03:07:07.205Z,913.17
2019-04-28T03:08:07.184Z,913.16
2019-04-28T03:09:07.181Z,913.13
2019-04-28T03:10:07.125Z,913.12
2019-04-28T03:11:07.068Z,913.16
2019-04-28T03:12:07.041Z,913.13
2019-04-28T03:13:07.041Z,913.14
2019-04-28T03:14:06.980Z,913.14
2019-04-28T03:15:06.961Z,913.10
2019-04-28T03:16:06.914Z,913.13
2019-04-28T03:17:07.179Z,913.11
2019-04-28T03:18:06.863Z,913.12
2019-04-28T03:19:06.792Z,913.13
2019-04-28T03:20:06.885Z,913.12
2019-04-28T03:21:06.767Z,913.13
2019-04-28T03:22:06.729Z,913.11
2019-04-28T03:23:09.120Z,913.12
2019-04-28T03:24:06.660Z,913.11
2019-04-28T03:25:06.620Z,913.10
2019-04-28T03:26:06.607Z,913.11
2019-04-28T03:27:06.544Z,913.08
2019-04-28T03:28:06.503Z,913.11
2019-04-28T03:29:06.488Z,913.11
2019-04-28T03:30:06.450Z,913.10
2019-04-28T03:31:34.861Z,913.10
2019-04-28T03:32:28.514Z,913.12
2019-04-28T03:33:13.049Z,913.08
2019-04-28T03:34:06.322Z,913.08
2019-04-28T03:35:12.388Z,913.08
2019-04-28T03:36:08.484Z,913.07
2019-04-28T03:37:06.249Z,913.06
2019-04-28T03:39:06.161Z,913.06
2019-04-28T03:40:06.145Z,913.05
2019-04-28T03:41:06.138Z,913.06
2019-04-28T03:42:06.081Z,913.03
2019-04-28T03:43:06.063Z,913.06
2019-04-28T03:44:06.010Z,913.05
2019-04-28T03:45:05.993Z,913.04
2019-04-28T03:46:05.949Z,913.02
2019-04-28T03:47:05.931Z,913.02
2019-04-28T03:48:05.878Z,913.00
2019-04-28T03:49:05.855Z,912.98
2019-04-28T03:50:05.829Z,912.99
2019-04-28T03:51:05.790Z,913.00
2019-04-28T03:52:05.752Z,912.95
2019-04-28T03:53:08.123Z,912.96
2019-04-28T03:54:05.667Z,912.97
2019-04-28T03:55:05.654Z,912.93
2019-04-28T03:56:05.582Z,912.97
2019-04-28T03:57:05.552Z,912.97
2019-04-28T03:58:05.533Z,913.00
2019-04-28T03:59:05.725Z,912.99
2019-04-28T04:00:11.009Z,912.98
2019-04-28T04:01:05.508Z,912.99
2019-04-28T04:02:05.470Z,912.98
2019-04-28T04:03:05.394Z,913.01
2019-04-28T04:04:05.356Z,912.99
2019-04-28T04:05:07.603Z,912.98
2019-04-28T04:06:07.280Z,912.96
2019-04-28T04:07:05.247Z,912.97
2019-04-28T04:08:05.182Z,912.95
2019-04-28T04:09:05.211Z,912.93
2019-04-28T04:10:05.132Z,912.94
2019-04-28T04:11:05.119Z,912.93
2019-04-28T04:12:05.078Z,912.94
2019-04-28T04:13:05.036Z,912.92
2019-04-28T04:14:07.138Z,912.93
2019-04-28T04:15:06.951Z,912.96
2019-04-28T04:16:04.952Z,912.97
2019-04-28T04:17:04.905Z,912.96
2019-04-28T04:18:04.921Z,912.95
2019-04-28T04:19:04.839Z,912.96
2019-04-28T04:20:04.806Z,912.93
2019-04-28T04:21:04.784Z,912.93
2019-04-28T04:22:04.743Z,912.88
2019-04-28T04:23:04.702Z,912.94
2019-04-28T04:24:04.670Z,912.85
2019-04-28T04:25:04.708Z,912.89
2019-04-28T04:26:04.589Z,912.86
2019-04-28T04:27:04.571Z,912.88
2019-04-28T04:28:04.511Z,912.89
2019-04-28T04:29:04.526Z,912.84
2019-04-28T04:30:04.482Z,912.82
2019-04-28T04:31:04.417Z,912.80
2019-04-28T04:32:16.756Z,912.80
2019-04-28T04:33:04.358Z,912.78
2019-04-28T04:34:04.358Z,912.77
2019-04-28T04:35:04.313Z,912.75
2019-04-28T04:36:04.271Z,912.77
2019-04-28T04:37:04.323Z,912.76
2019-04-28T04:38:04.195Z,912.75
2019-04-28T04:39:04.168Z,912.70
2019-04-28T04:40:04.133Z,912.71
2019-04-28T04:41:04.101Z,912.70
2019-04-28T04:42:04.017Z,912.68
2019-04-28T04:43:03.989Z,912.72
2019-04-28T04:44:03.972Z,912.70
2019-04-28T04:45:03.983Z,912.67
2019-04-28T04:46:03.960Z,912.66
2019-04-28T04:47:03.908Z,912.67
2019-04-28T04:48:04.109Z,912.67
2019-04-28T04:49:03.866Z,912.64
2019-04-28T04:50:03.783Z,912.67
2019-04-28T04:51:03.755Z,912.68
2019-04-28T04:52:03.724Z,912.61
2019-04-28T04:53:03.667Z,912.63
2019-04-28T04:54:03.771Z,912.64
2019-04-28T04:55:03.621Z,912.64
2019-04-28T04:56:03.594Z,912.64
2019-04-28T04:57:03.515Z,912.63
2019-04-28T04:58:03.539Z,912.63
2019-04-28T04:59:03.458Z,912.62
2019-04-28T05:00:03.419Z,912.60
2019-04-28T05:01:03.391Z,912.62
2019-04-28T05:02:03.349Z,912.56
2019-04-28T05:03:03.369Z,912.56
2019-04-28T05:04:03.317Z,912.56
2019-04-28T05:05:03.254Z,912.60
2019-04-28T05:06:03.217Z,912.60
2019-04-28T05:07:03.202Z,912.60
2019-04-28T05:08:03.172Z,912.60
2019-04-28T05:09:03.186Z,912.62
2019-04-28T05:10:03.308Z,912.60
2019-04-28T05:11:03.069Z,912.57
2019-04-28T05:12:03.024Z,912.59
2019-04-28T05:13:03.008Z,912.62
2019-04-28T05:14:02.983Z,912.62
2019-04-28T05:15:02.919Z,912.61
2019-04-28T05:16:03.188Z,912.61
2019-04-28T05:17:02.863Z,912.61
2019-04-28T05:18:02.843Z,912.62
2019-04-28T05:19:02.789Z,912.59
2019-04-28T05:20:02.773Z,912.58
2019-04-28T05:21:02.721Z,912.55
2019-04-28T05:22:02.940Z,912.55
2019-04-28T05:23:02.681Z,912.57
2019-04-28T05:24:02.627Z,912.56
2019-04-28T05:25:02.610Z,912.54
2019-04-28T05:26:08.187Z,912.58
2019-04-28T05:27:02.538Z,912.58
2019-04-28T05:28:02.981Z,912.58
2019-04-28T05:29:02.493Z,912.53
2019-04-28T05:30:05.103Z,912.53
2019-04-28T05:31:02.397Z,912.52
2019-04-28T05:32:03.591Z,912.46
2019-04-28T05:33:02.335Z,912.48
2019-04-28T05:34:04.213Z,912.47
2019-04-28T05:35:02.276Z,912.48
2019-04-28T05:36:03.121Z,912.48
2019-04-28T05:37:02.199Z,912.48
2019-04-28T05:38:02.170Z,912.53
2019-04-28T05:39:02.144Z,912.48
2019-04-28T05:40:02.127Z,912.54
2019-04-28T05:41:02.830Z,912.53
2019-04-28T05:42:02.030Z,912.51
2019-04-28T05:43:01.989Z,912.50
2019-04-28T05:44:01.956Z,912.52
2019-04-28T05:45:01.937Z,912.47
2019-04-28T05:46:01.922Z,912.46
2019-04-28T05:47:01.858Z,912.42
2019-04-28T05:48:02.011Z,912.42
2019-04-28T05:49:01.780Z,912.42
2019-04-28T05:50:01.773Z,912.41
2019-04-28T05:51:01.807Z,912.39
2019-04-28T05:52:01.691Z,912.39
2019-04-28T05:53:01.657Z,912.40
2019-04-28T05:54:01.647Z,912.42
2019-04-28T05:55:01.581Z,912.45
2019-04-28T05:56:01.577Z,912.39
2019-04-28T05:57:02.435Z,912.38
2019-04-28T05:58:01.485Z,912.39
2019-04-28T05:59:01.496Z,912.35
2019-04-28T06:00:03.580Z,912.35
2019-04-28T06:01:01.380Z,912.34
2019-04-28T06:02:01.348Z,912.33
2019-04-28T06:03:01.342Z,912.34
2019-04-28T06:04:01.303Z,912.30
2019-04-28T06:05:01.250Z,912.29
2019-04-28T06:06:01.215Z,912.29
2019-04-28T06:07:01.183Z,912.29
2019-04-28T06:08:01.162Z,912.27
2019-04-28T06:09:01.118Z,912.27
2019-04-28T06:10:01.082Z,912.27
2019-04-28T06:11:01.047Z,912.27
2019-04-28T06:12:01.016Z,912.31
2019-04-28T06:13:01.002Z,912.30
2019-04-28T06:14:01.153Z,912.30
2019-04-28T06:15:00.938Z,912.31
2019-04-28T06:16:00.909Z,912.31
2019-04-28T06:17:03.797Z,912.34
2019-04-28T06:18:00.846Z,912.31
2019-04-28T06:19:00.806Z,912.31
2019-04-28T06:20:00.756Z,912.32
2019-04-28T06:21:00.725Z,912.30
2019-04-28T06:22:00.685Z,912.29
2019-04-28T06:23:00.652Z,912.32
2019-04-28T06:24:00.648Z,912.32
2019-04-28T06:25:00.624Z,912.29
2019-04-28T06:26:00.558Z,912.27
2019-04-28T06:27:00.536Z,912.25
2019-04-28T06:28:00.500Z,912.21
2019-04-28T06:29:00.478Z,912.22
2019-04-28T06:30:00.438Z,912.22
2019-04-28T06:31:00.392Z,912.23
2019-04-28T06:32:00.362Z,912.21
2019-04-28T06:33:07.620Z,912.23
2019-04-28T06:34:00.317Z,912.21
2019-04-28T06:35:00.271Z,912.23
2019-04-28T06:36:00.249Z,912.18
2019-04-28T06:37:00.203Z,912.22
2019-04-28T06:38:00.173Z,912.20
2019-04-28T06:39:00.137Z,912.19
2019-04-28T06:40:00.112Z,912.20
2019-04-28T06:41:00.075Z,912.20
2019-04-28T06:42:00.040Z,912.22
2019-04-28T06:42:59.987Z,912.17
2019-04-28T06:43:59.952Z,912.20
2019-04-28T06:44:59.918Z,912.19
2019-04-28T06:45:59.882Z,912.18
2019-04-28T06:47:00.003Z,912.12
2019-04-28T06:47:59.846Z,912.14
2019-04-28T06:48:59.803Z,912.12
2019-04-28T06:49:59.774Z,912.09
2019-04-28T06:50:59.735Z,912.08
2019-04-28T06:51:59.706Z,912.06
2019-04-28T06:53:02.693Z,912.03
2019-04-28T06:53:59.660Z,912.00
2019-04-28T06:54:59.594Z,912.04
2019-04-28T06:55:59.548Z,911.99
2019-04-28T06:56:59.518Z,911.98
2019-04-28T06:57:59.507Z,911.95
2019-04-28T06:58:59.587Z,911.93
2019-04-28T06:59:59.535Z,911.93
2019-04-28T07:00:59.405Z,911.91
2019-04-28T07:01:59.374Z,911.91
2019-04-28T07:02:59.337Z,911.91
2019-04-28T07:03:59.299Z,911.88
2019-04-28T07:05:01.961Z,911.89
2019-04-28T07:05:59.221Z,911.93
2019-04-28T07:06:59.178Z,911.86
2019-04-28T07:07:59.171Z,911.85
2019-04-28T07:08:59.111Z,911.83
2019-04-28T07:09:59.090Z,911.83
2019-04-28T07:10:59.045Z,911.86
2019-04-28T07:11:59.033Z,911.83
2019-04-28T07:12:58.983Z,911.87
2019-04-28T07:13:58.972Z,911.83
2019-04-28T07:14:58.942Z,911.85
2019-04-28T07:15:58.901Z,911.81
2019-04-28T07:16:58.849Z,911.82
2019-04-28T07:17:58.835Z,911.79
2019-04-28T07:18:58.798Z,911.80
2019-04-28T07:19:59.069Z,911.81
2019-04-28T07:20:58.741Z,911.78
2019-04-28T07:21:58.681Z,911.76
2019-04-28T07:22:58.645Z,911.76
2019-04-28T07:23:58.646Z,911.78
2019-04-28T07:24:58.584Z,911.76
2019-04-28T07:25:58.708Z,911.77
2019-04-28T07:26:58.536Z,911.78
2019-04-28T07:27:58.523Z,911.74
2019-04-28T07:28:58.447Z,911.75
2019-04-28T07:29:58.436Z,911.74
2019-04-28T07:30:58.379Z,911.76
2019-04-28T07:31:58.646Z,911.76
2019-04-28T07:32:58.337Z,911.77
2019-04-28T07:33:58.278Z,911.80
2019-04-28T07:34:58.244Z,911.78
2019-04-28T07:35:58.222Z,911.77
2019-04-28T07:36:58.281Z,911.74
2019-04-28T07:37:58.161Z,911.75
2019-04-28T07:38:58.114Z,911.73
2019-04-28T07:39:58.104Z,911.74
2019-04-28T07:40:58.066Z,911.76
2019-04-28T07:41:58.010Z,911.73
2019-04-28T07:42:58.025Z,911.73
2019-04-28T07:43:57.972Z,911.78
2019-04-28T07:44:57.908Z,911.79
2019-04-28T07:45:57.987Z,911.80
2019-04-28T07:46:57.840Z,911.78
2019-04-28T07:47:57.880Z,911.81
2019-04-28T07:48:57.773Z,911.82
2019-04-28T07:49:57.742Z,911.82
2019-04-28T07:50:57.727Z,911.82
2019-04-28T07:51:57.692Z,911.86
2019-04-28T07:52:57.649Z,911.84
2019-04-28T07:53:57.635Z,911.84
2019-04-28T07:54:57.589Z,911.90
2019-04-28T07:55:57.563Z,911.87
2019-04-28T07:56:57.509Z,911.89
2019-04-28T07:57:57.500Z,911.89
2019-04-28T07:58:57.686Z,911.92
2019-04-28T07:59:57.430Z,911.94
2019-04-28T08:00:57.387Z,911.92
2019-04-28T08:01:57.358Z,911.92
2019-04-28T08:02:57.333Z,911.95
2019-04-28T08:03:57.597Z,911.94
2019-04-28T08:04:57.261Z,911.92
2019-04-28T08:05:57.242Z,911.93
2019-04-28T08:06:57.288Z,911.96
2019-04-28T08:07:57.161Z,912.01
2019-04-28T08:08:57.119Z,912.02
2019-04-28T08:09:57.073Z,912.05
2019-04-28T08:10:57.034Z,912.06
2019-04-28T08:11:57.002Z,912.06
2019-04-28T08:12:56.987Z,912.01
2019-04-28T08:13:56.961Z,912.02
2019-04-28T08:14:57.234Z,912.06
2019-04-28T08:15:56.893Z,912.08
2019-04-28T08:16:56.836Z,912.10
2019-04-28T08:17:56.813Z,912.09
2019-04-28T08:18:56.790Z,912.14
2019-04-28T08:19:56.807Z,912.12
2019-04-28T08:20:56.705Z,912.16
2019-04-28T08:21:56.670Z,912.18
2019-04-28T08:22:56.666Z,912.18
2019-04-28T08:23:56.619Z,912.22
2019-04-28T08:24:56.561Z,912.21
2019-04-28T08:25:56.561Z,912.18
2019-04-28T08:26:56.491Z,912.21
2019-04-28T08:27:56.474Z,912.23
2019-04-28T08:28:56.438Z,912.21
2019-04-28T08:29:58.675Z,912.23
2019-04-28T08:30:56.366Z,912.26
2019-04-28T08:32:56.313Z,912.22
2019-04-28T08:34:02.157Z,912.29
2019-04-28T08:34:56.229Z,912.30
2019-04-28T08:35:56.194Z,912.32
2019-04-28T08:36:56.158Z,912.34
2019-04-28T08:37:56.138Z,912.33
2019-04-28T08:38:56.114Z,912.36
2019-04-28T08:39:56.080Z,912.37
2019-04-28T08:40:56.045Z,912.38
2019-04-28T08:41:56.163Z,912.38
2019-04-28T08:42:55.954Z,912.42
2019-04-28T08:43:55.922Z,912.42
2019-04-28T08:44:55.889Z,912.47
2019-04-28T08:45:55.917Z,912.48
2019-04-28T08:46:55.841Z,912.50
2019-04-28T08:47:57.951Z,912.52
2019-04-28T08:48:55.754Z,912.50
2019-04-28T08:49:55.771Z,912.53
2019-04-28T08:50:55.721Z,912.54
2019-04-28T08:51:55.679Z,912.53
2019-04-28T08:52:55.648Z,912.54
2019-04-28T08:53:55.591Z,912.57
2019-04-28T08:54:55.583Z,912.58
2019-04-28T08:55:55.520Z,912.55
2019-04-28T08:56:55.502Z,912.58
2019-04-28T08:57:55.460Z,912.56
2019-04-28T08:58:55.689Z,912.59
2019-04-28T08:59:55.417Z,912.62
2019-04-28T09:00:55.346Z,912.62
2019-04-28T09:01:55.322Z,912.65
2019-04-28T09:02:55.289Z,912.66
2019-04-28T09:03:55.270Z,912.69
2019-04-28T09:04:55.214Z,912.69
2019-04-28T09:05:55.199Z,912.70
2019-04-28T09:06:55.173Z,912.73
2019-04-28T09:07:55.117Z,912.79
2019-04-28T09:08:55.105Z,912.81
2019-04-28T09:09:55.088Z,912.85
2019-04-28T09:10:55.022Z,912.85
2019-04-28T09:11:54.985Z,912.90
2019-04-28T09:12:54.947Z,912.91
2019-04-28T09:13:54.915Z,912.96
2019-04-28T09:14:54.894Z,912.94
2019-04-28T09:15:54.851Z,912.97
2019-04-28T09:16:54.836Z,912.98
2019-04-28T09:17:54.806Z,913.01
2019-04-28T09:18:54.742Z,913.03
2019-04-28T09:19:54.707Z,913.06
2019-04-28T09:20:54.709Z,913.06
2019-04-28T09:21:54.639Z,913.11
2019-04-28T09:22:54.634Z,913.13
2019-04-28T09:23:54.595Z,913.14
2019-04-28T09:24:54.542Z,913.15
2019-04-28T09:25:54.529Z,913.16
2019-04-28T09:26:54.472Z,913.19
2019-04-28T09:27:54.439Z,913.19
2019-04-28T09:28:54.422Z,913.20
2019-04-28T09:29:54.388Z,913.24
2019-04-28T09:30:54.355Z,913.24
2019-04-28T09:31:54.322Z,913.28
2019-04-28T09:32:54.350Z,913.29
2019-04-28T09:33:54.257Z,913.30
2019-04-28T09:34:54.205Z,913.33
2019-04-28T09:35:54.185Z,913.36
2019-04-28T09:36:54.139Z,913.37
2019-04-28T09:37:54.153Z,913.41
2019-04-28T09:38:54.086Z,913.48
2019-04-28T09:39:54.067Z,913.48
2019-04-28T09:40:54.151Z,913.49
2019-04-28T09:41:53.985Z,913.53
2019-04-28T09:42:53.955Z,913.55
2019-04-28T09:43:53.950Z,913.57
2019-04-28T09:44:53.900Z,913.54
2019-04-28T09:45:53.869Z,913.53
2019-04-28T09:46:54.133Z,913.54
2019-04-28T09:47:53.799Z,913.55
2019-04-28T09:48:53.795Z,913.52
2019-04-28T09:49:53.710Z,913.56
2019-04-28T09:50:53.690Z,913.53
2019-04-28T09:51:53.744Z,913.54
2019-04-28T09:52:53.705Z,913.51
2019-04-28T09:53:53.582Z,913.50
2019-04-28T09:54:53.553Z,913.53
2019-04-28T09:55:53.513Z,913.53
2019-04-28T09:56:57.034Z,913.56
2019-04-28T09:57:54.793Z,913.61
2019-04-28T09:58:53.535Z,913.64
2019-04-28T09:59:53.383Z,913.63
2019-04-28T10:00:53.331Z,913.64
2019-04-28T10:01:53.303Z,913.69
2019-04-28T10:02:53.317Z,913.67
2019-04-28T10:03:53.250Z,913.72
2019-04-28T10:04:53.198Z,913.74
2019-04-28T10:05:53.167Z,913.74
2019-04-28T10:06:53.135Z,913.72
2019-04-28T10:07:53.123Z,913.73
2019-04-28T10:08:53.288Z,913.76
2019-04-28T10:09:53.036Z,913.79
2019-04-28T10:10:53.030Z,913.79
2019-04-28T10:11:52.977Z,913.80
2019-04-28T10:12:52.960Z,913.76
2019-04-28T10:13:52.914Z,913.76
2019-04-28T10:14:53.041Z,913.79
2019-04-28T10:15:52.853Z,913.82
2019-04-28T10:16:52.812Z,913.89
2019-04-28T10:17:52.814Z,913.90
2019-04-28T10:18:52.749Z,913.93
2019-04-28T10:19:52.735Z,913.96
2019-04-28T10:20:52.705Z,913.95
2019-04-28T10:21:52.661Z,913.97
2019-04-28T10:22:52.647Z,913.95
2019-04-28T10:23:52.623Z,913.96
2019-04-28T10:24:52.563Z,913.99
2019-04-28T10:25:52.748Z,914.01
2019-04-28T10:26:52.497Z,914.00
2019-04-28T10:27:52.462Z,914.01
2019-04-28T10:28:52.437Z,914.06
2019-04-28T10:29:52.426Z,914.04
2019-04-28T10:30:52.494Z,914.04
2019-04-28T10:31:52.353Z,914.05
2019-04-28T10:32:52.334Z,914.08
2019-04-28T10:33:52.315Z,914.09
2019-04-28T10:34:55.051Z,914.11
2019-04-28T10:35:52.220Z,914.11
2019-04-28T10:36:52.183Z,914.11
2019-04-28T10:37:52.157Z,914.13
2019-04-28T10:38:52.138Z,914.13
2019-04-28T10:39:52.132Z,914.18
2019-04-28T10:40:52.085Z,914.19
2019-04-28T10:41:52.140Z,914.24
2019-04-28T10:42:52.121Z,914.26
2019-04-28T10:43:52.004Z,914.28
2019-04-28T10:44:52.027Z,914.35
2019-04-28T10:45:51.929Z,914.38
2019-04-28T10:46:52.254Z,914.40
2019-04-28T10:47:51.874Z,914.43
2019-04-28T10:48:51.843Z,914.43
2019-04-28T10:49:51.802Z,914.47
2019-04-28T10:50:51.786Z,914.48
2019-04-28T10:51:59.052Z,914.47
2019-04-28T10:52:51.860Z,914.47
2019-04-28T10:53:51.687Z,914.51
2019-04-28T10:54:51.647Z,914.52
2019-04-28T10:55:51.651Z,914.48
2019-04-28T10:56:51.607Z,914.52
2019-04-28T10:57:51.570Z,914.51
2019-04-28T10:58:51.548Z,914.55
2019-04-28T10:59:51.535Z,914.60
2019-04-28T11:00:51.495Z,914.64
2019-04-28T11:01:51.465Z,914.64
2019-04-28T11:02:51.497Z,914.71
2019-04-28T11:03:51.557Z,914.79
2019-04-28T11:04:51.381Z,914.88
2019-04-28T11:05:51.328Z,915.05
2019-04-28T11:06:51.342Z,915.33
2019-04-28T11:07:51.297Z,915.59
2019-04-28T11:08:51.291Z,916.11
2019-04-28T11:09:51.216Z,916.78
2019-04-28T11:10:51.217Z,917.44
2019-04-28T11:11:51.164Z,918.05
2019-04-28T11:12:51.149Z,918.78
2019-04-28T11:13:51.139Z,919.22
2019-04-28T11:14:51.083Z,919.82
2019-04-28T11:15:51.053Z,920.31
2019-04-28T11:16:51.077Z,920.25
2019-04-28T11:17:51.047Z,920.05
2019-04-28T11:18:51.040Z,920.51
2019-04-28T11:19:51.001Z,920.38
2019-04-28T11:20:50.950Z,920.09
2019-04-28T11:21:50.962Z,919.96
2019-04-28T11:22:50.959Z,919.78
2019-04-28T11:23:50.912Z,919.88
2019-04-28T11:24:50.913Z,919.87
2019-04-28T11:25:50.865Z,919.52
2019-04-28T11:26:50.837Z,918.75
2019-04-28T11:27:50.834Z,918.20
2019-04-28T11:28:50.783Z,917.91
2019-04-28T11:29:50.803Z,918.19
2019-04-28T11:30:50.742Z,917.88
2019-04-28T11:31:50.746Z,917.66
2019-04-28T11:32:50.691Z,917.84
2019-04-28T11:33:50.669Z,917.56
2019-04-28T11:34:50.623Z,917.43
2019-04-28T11:35:50.601Z,917.40
2019-04-28T11:36:50.569Z,917.36
2019-04-28T11:37:50.529Z,917.31
2019-04-28T11:38:50.508Z,917.45
2019-04-28T11:39:50.475Z,917.41
2019-04-28T11:40:50.427Z,917.05
2019-04-28T11:41:50.392Z,916.82
2019-04-28T11:42:50.406Z,916.91
2019-04-28T11:43:50.377Z,916.88
2019-04-28T11:44:50.371Z,916.93
2019-04-28T11:45:50.332Z,916.86
2019-04-28T11:46:50.272Z,916.64
2019-04-28T11:47:50.248Z,916.42
2019-04-28T11:48:50.239Z,916.16
2019-04-28T11:49:50.205Z,916.10
2019-04-28T11:50:50.150Z,916.10
2019-04-28T11:51:50.407Z,916.07
2019-04-28T11:52:50.146Z,915.95
2019-04-28T11:53:50.116Z,915.85
2019-04-28T11:54:50.073Z,915.83
2019-04-28T11:55:50.057Z,915.81
2019-04-28T11:56:50.068Z,915.73
2019-04-28T11:57:50.333Z,915.64
2019-04-28T11:58:50.025Z,915.56
2019-04-28T11:59:49.979Z,915.81
2019-04-28T12:00:49.927Z,915.84
2019-04-28T12:01:49.895Z,915.89
2019-04-28T12:02:49.891Z,915.87
2019-04-28T12:03:49.884Z,915.90
2019-04-28T12:04:49.842Z,915.99
2019-04-28T12:05:49.850Z,916.15
2019-04-28T12:06:49.910Z,916.25
2019-04-28T12:07:49.738Z,916.26
2019-04-28T12:08:49.756Z,916.30
2019-04-28T12:09:49.730Z,916.34
2019-04-28T12:10:49.731Z,916.30
2019-04-28T12:11:49.655Z,916.41
2019-04-28T12:12:49.634Z,916.39
2019-04-28T12:13:49.631Z,916.56
2019-04-28T12:14:49.931Z,916.65
2019-04-28T12:15:49.582Z,916.54
2019-04-28T12:16:49.554Z,916.52
2019-04-28T12:17:49.550Z,916.67
2019-04-28T12:18:49.526Z,916.61
2019-04-28T12:19:49.497Z,916.41
2019-04-28T12:20:49.504Z,916.54
2019-04-28T12:21:49.491Z,916.62
2019-04-28T12:22:49.442Z,916.67
2019-04-28T12:23:49.453Z,916.79
2019-04-28T12:24:49.407Z,916.79
2019-04-28T12:25:49.399Z,916.80
2019-04-28T12:26:49.403Z,916.68
2019-04-28T12:27:49.396Z,916.70
2019-04-28T12:28:49.410Z,916.62
2019-04-28T12:29:49.307Z,916.60
2019-04-28T12:30:49.544Z,916.51
2019-04-28T12:31:49.283Z,916.48